createdAt,value
2023-05-23T00:00:59.579Z,99.90
2023-05-23T00:03:27.525Z,99.90
2023-05-23T00:05:56.543Z,99.90
2023-05-23T00:08:23.791Z,99.90
2023-05-23T00:10:51.194Z,99.90
2023-05-23T00:13:18.549Z,99.90
2023-05-23T00:15:45.599Z,99.90
2023-05-23T00:18:12.401Z,99.90
2023-05-23T00:20:40.921Z,99.90
2023-05-23T00:23:09.859Z,99.90
2023-05-23T00:25:37.462Z,99.90
2023-05-23T00:28:05.064Z,99.90
2023-05-23T00:30:33.611Z,99.90
2023-05-23T00:33:01.017Z,99.90
2023-05-23T00:35:28.160Z,99.90
2023-05-23T00:37:55.638Z,99.90
2023-05-23T00:40:23.165Z,99.90
2023-05-23T00:42:50.150Z,99.90
2023-05-23T00:45:17.650Z,99.90
2023-05-23T00:47:45.792Z,99.90
2023-05-23T00:50:14.778Z,99.90
2023-05-23T00:52:43.171Z,99.90
2023-05-23T00:55:10.462Z,99.90
2023-05-23T00:57:41.507Z,99.90
2023-05-23T01:00:12.557Z,99.90
2023-05-23T01:02:47.395Z,99.90
2023-05-23T01:05:17.699Z,99.90
2023-05-23T01:07:45.045Z,99.90
2023-05-23T01:10:12.958Z,99.90
2023-05-23T01:12:46.898Z,99.90
2023-05-23T01:15:19.785Z,99.90
2023-05-23T01:18:02.727Z,99.90
2023-05-23T01:20:36.285Z,99.90
2023-05-23T01:23:18.719Z,99.90
2023-05-23T01:25:49.724Z,99.90
2023-05-23T01:28:23.622Z,99.90
2023-05-23T01:30:53.525Z,99.90
2023-05-23T01:33:22.605Z,99.90
2023-05-23T01:35:49.974Z,99.90
2023-05-23T01:38:16.855Z,99.90
2023-05-23T01:40:43.793Z,99.90
2023-05-23T01:43:10.909Z,99.90
2023-05-23T01:45:37.837Z,99.90
2023-05-23T01:48:06.647Z,99.90
2023-05-23T01:50:34.297Z,99.90
2023-05-23T01:53:01.523Z,99.90
2023-05-23T01:55:28.945Z,99.90
2023-05-23T01:57:57.073Z,99.90
2023-05-23T02:00:24.430Z,99.90
2023-05-23T02:02:51.487Z,99.90
2023-05-23T02:05:18.503Z,99.90
2023-05-23T02:07:45.422Z,99.90
2023-05-23T02:10:12.224Z,99.90
2023-05-23T02:12:39.034Z,99.90
2023-05-23T02:15:07.684Z,99.90
2023-05-23T02:17:34.660Z,99.90
2023-05-23T02:20:01.513Z,99.90
2023-05-23T02:22:28.282Z,99.90
2023-05-23T02:24:55.085Z,99.90
2023-05-23T02:27:22.141Z,99.90
2023-05-23T02:29:48.960Z,99.90
2023-05-23T02:32:15.787Z,99.90
2023-05-23T02:34:42.630Z,99.90
2023-05-23T02:37:09.460Z,99.90
2023-05-23T02:39:37.027Z,99.90
2023-05-23T02:42:04.919Z,99.90
2023-05-23T02:44:32.003Z,99.90
2023-05-23T02:46:58.796Z,99.90
2023-05-23T02:49:25.893Z,99.90
2023-05-23T02:51:52.792Z,99.90
2023-05-23T02:54:19.650Z,99.90
2023-05-23T02:56:46.801Z,99.90
2023-05-23T02:59:13.888Z,99.90
2023-05-23T03:01:40.968Z,99.90
2023-05-23T03:04:07.880Z,99.90
2023-05-23T03:06:37.073Z,99.90
2023-05-23T03:09:04.068Z,99.90
2023-05-23T03:11:31.098Z,99.90
2023-05-23T03:13:57.861Z,99.90
2023-05-23T03:16:24.739Z,99.90
2023-05-23T03:18:51.532Z,99.90
2023-05-23T03:21:18.390Z,99.90
2023-05-23T03:23:45.245Z,99.90
2023-05-23T03:26:12.123Z,99.90
2023-05-23T03:28:38.871Z,99.90
2023-05-23T03:31:05.787Z,99.90
2023-05-23T03:33:33.495Z,99.90
2023-05-23T03:36:00.303Z,99.90
2023-05-23T03:38:27.937Z,99.90
2023-05-23T03:40:54.705Z,99.90
2023-05-23T03:43:21.534Z,99.90
2023-05-23T03:45:48.412Z,99.90
2023-05-23T03:48:15.954Z,99.90
2023-05-23T03:50:42.928Z,99.90
2023-05-23T03:53:09.836Z,99.90
2023-05-23T03:55:36.781Z,99.90
2023-05-23T03:58:03.778Z,99.90
2023-05-23T04:00:30.698Z,99.90
2023-05-23T04:02:58.160Z,99.90
2023-05-23T04:05:24.955Z,99.90
2023-05-23T04:07:52.603Z,99.90
2023-05-23T04:10:19.747Z,99.90
2023-05-23T04:12:47.853Z,99.90
2023-05-23T04:15:14.741Z,99.90
2023-05-23T04:17:41.541Z,99.90
2023-05-23T04:20:09.898Z,99.90
2023-05-23T04:22:37.165Z,99.90
2023-05-23T04:25:04.322Z,99.90
2023-05-23T04:27:31.143Z,99.90
2023-05-23T04:29:58.287Z,99.90
2023-05-23T04:32:25.543Z,99.90
2023-05-23T04:34:52.577Z,99.90
2023-05-23T04:37:26.220Z,99.90
2023-05-23T04:39:53.683Z,99.90
2023-05-23T04:42:24.570Z,99.90
2023-05-23T04:44:52.814Z,99.90
2023-05-23T04:47:19.861Z,99.90
2023-05-23T04:49:46.729Z,99.90
2023-05-23T04:52:13.520Z,99.90
2023-05-23T04:54:44.727Z,99.90
2023-05-23T04:57:12.443Z,99.90
2023-05-23T04:59:39.512Z,99.90
2023-05-23T05:02:06.827Z,99.90
2023-05-23T05:04:33.749Z,99.90
2023-05-23T05:07:00.757Z,99.90
2023-05-23T05:09:27.673Z,99.90
2023-05-23T05:11:54.475Z,99.90
2023-05-23T05:14:21.331Z,99.90
2023-05-23T05:16:50.241Z,99.90
2023-05-23T05:19:17.169Z,99.90
2023-05-23T05:21:44.071Z,99.90
2023-05-23T05:24:11.001Z,99.90
2023-05-23T05:26:37.931Z,99.90
2023-05-23T05:29:04.762Z,99.90
2023-05-23T05:31:31.645Z,99.90
2023-05-23T05:33:58.691Z,99.90
2023-05-23T05:36:25.556Z,99.90
2023-05-23T05:38:53.446Z,99.90
2023-05-23T05:41:20.399Z,99.90
2023-05-23T05:43:47.240Z,99.90
2023-05-23T05:46:14.100Z,99.90
2023-05-23T05:48:41.002Z,99.90
2023-05-23T05:51:08.016Z,99.90
2023-05-23T05:53:34.857Z,97.00
2023-05-23T05:56:02.605Z,91.60
2023-05-23T05:58:29.518Z,82.50
2023-05-23T06:00:56.383Z,76.70
2023-05-23T06:03:24.639Z,70.90
2023-05-23T06:05:51.641Z,68.90
2023-05-23T06:08:18.533Z,68.80
2023-05-23T06:10:45.370Z,72.60
2023-05-23T06:13:12.178Z,71.10
2023-05-23T06:15:39.118Z,68.20
2023-05-23T06:18:06.574Z,65.40
2023-05-23T06:20:33.413Z,62.70
2023-05-23T06:23:00.469Z,58.70
2023-05-23T06:25:27.785Z,56.20
2023-05-23T06:27:54.557Z,54.80
2023-05-23T06:30:22.364Z,52.10
2023-05-23T06:32:49.177Z,53.60
2023-05-23T06:35:16.086Z,52.00
2023-05-23T06:37:45.703Z,52.80
2023-05-23T06:40:14.659Z,51.60
2023-05-23T06:42:41.948Z,49.90
2023-05-23T06:45:09.851Z,48.80
2023-05-23T06:47:36.695Z,47.20
2023-05-23T06:50:04.307Z,46.40
2023-05-23T06:52:31.108Z,47.30
2023-05-23T06:54:57.895Z,49.00
2023-05-23T06:57:24.667Z,49.80
2023-05-23T06:59:51.474Z,49.10
2023-05-23T07:02:18.286Z,47.00
2023-05-23T07:04:45.106Z,47.40
2023-05-23T07:07:11.926Z,46.90
2023-05-23T07:09:39.418Z,46.10
2023-05-23T07:12:07.261Z,46.70
2023-05-23T07:14:35.735Z,48.00
2023-05-23T07:17:02.602Z,48.10
2023-05-23T07:19:29.574Z,47.10
2023-05-23T07:21:56.403Z,46.90
2023-05-23T07:24:25.180Z,47.40
2023-05-23T07:26:52.299Z,48.00
2023-05-23T07:29:19.365Z,51.50
2023-05-23T07:31:46.191Z,55.50
2023-05-23T07:34:13.006Z,59.90
2023-05-23T07:36:40.879Z,62.40
2023-05-23T07:39:07.832Z,62.30
2023-05-23T07:41:34.666Z,64.40
2023-05-23T07:44:01.520Z,64.10
2023-05-23T07:46:28.451Z,64.90
2023-05-23T07:48:55.499Z,65.60
2023-05-23T07:51:22.370Z,66.70
2023-05-23T07:53:49.159Z,69.10
2023-05-23T07:56:17.054Z,70.90
2023-05-23T07:58:43.870Z,70.50
2023-05-23T08:01:10.752Z,72.10
2023-05-23T08:03:37.625Z,72.20
2023-05-23T08:06:04.531Z,73.60
2023-05-23T08:08:31.793Z,74.60
2023-05-23T08:10:58.675Z,76.00
2023-05-23T08:13:25.710Z,76.40
2023-05-23T08:15:54.023Z,77.30
2023-05-23T08:18:20.883Z,79.40
2023-05-23T08:20:47.716Z,81.90
2023-05-23T08:23:14.590Z,83.10
2023-05-23T08:25:41.421Z,84.60
2023-05-23T08:28:08.227Z,86.60
2023-05-23T08:30:35.126Z,88.00
2023-05-23T08:33:04.744Z,89.20
2023-05-23T08:35:36.369Z,90.40
2023-05-23T08:38:09.957Z,91.50
2023-05-23T08:40:37.310Z,91.40
2023-05-23T08:43:05.247Z,92.30
2023-05-23T08:45:32.469Z,93.10
2023-05-23T08:48:01.902Z,93.20
2023-05-23T08:50:30.526Z,93.20
2023-05-23T08:53:00.501Z,94.20
2023-05-23T08:55:29.047Z,93.50
2023-05-23T08:57:57.674Z,93.10
2023-05-23T09:00:25.998Z,93.30
2023-05-23T09:02:53.817Z,93.70
2023-05-23T09:05:21.276Z,93.40
2023-05-23T09:07:49.231Z,94.00
2023-05-23T09:10:20.273Z,93.40
2023-05-23T09:12:47.407Z,93.80
2023-05-23T09:15:14.841Z,93.60
2023-05-23T09:17:41.901Z,93.80
2023-05-23T09:20:15.990Z,92.40
2023-05-23T09:22:48.169Z,92.40
2023-05-23T09:25:15.744Z,92.10
2023-05-23T09:27:45.712Z,91.60
2023-05-23T09:30:15.100Z,90.10
2023-05-23T09:32:42.381Z,90.60
2023-05-23T09:35:14.168Z,91.00
2023-05-23T09:37:47.032Z,91.30
2023-05-23T09:40:15.851Z,90.90
2023-05-23T09:42:47.573Z,89.60
2023-05-23T09:45:16.152Z,90.10
2023-05-23T09:47:53.172Z,90.00
2023-05-23T09:50:21.410Z,90.30
2023-05-23T09:52:48.521Z,91.10
2023-05-23T09:55:15.554Z,90.80
2023-05-23T09:57:44.176Z,91.30
2023-05-23T10:00:15.028Z,91.30
2023-05-23T10:02:54.916Z,92.30
2023-05-23T10:05:46.477Z,92.50
2023-05-23T10:08:36.568Z,93.40
2023-05-23T10:11:16.852Z,94.60
2023-05-23T10:13:44.493Z,95.20
2023-05-23T10:16:53.414Z,94.90
2023-05-23T10:19:38.581Z,94.50
2023-05-23T10:22:09.923Z,95.20
2023-05-23T10:24:37.781Z,93.90
2023-05-23T10:27:04.755Z,93.60
2023-05-23T10:29:33.835Z,93.70
2023-05-23T10:32:04.006Z,94.00
2023-05-23T10:35:08.558Z,94.30
2023-05-23T10:37:44.457Z,95.10
2023-05-23T10:40:20.318Z,95.70
2023-05-23T10:42:59.246Z,96.50
2023-05-23T10:45:26.060Z,97.10
2023-05-23T10:47:53.854Z,97.50
2023-05-23T10:50:37.429Z,98.80
2023-05-23T10:53:06.166Z,97.30
2023-05-23T10:55:37.116Z,98.10
2023-05-23T10:58:20.473Z,97.60
2023-05-23T11:01:00.387Z,96.90
2023-05-23T11:03:46.659Z,97.20
2023-05-23T11:06:32.527Z,96.20
2023-05-23T11:09:10.296Z,95.60
2023-05-23T11:12:05.798Z,93.00
2023-05-23T11:14:32.896Z,92.20
2023-05-23T11:17:01.405Z,90.20
2023-05-23T11:19:29.933Z,91.40
2023-05-23T11:22:06.033Z,87.80
2023-05-23T11:24:52.329Z,84.40
2023-05-23T11:27:34.766Z,83.80
2023-05-23T11:30:17.706Z,83.70
2023-05-23T11:32:53.043Z,82.20
2023-05-23T11:35:21.450Z,80.40
2023-05-23T11:37:49.050Z,77.50
2023-05-23T11:40:27.131Z,77.50
2023-05-23T11:42:54.794Z,77.70
2023-05-23T11:45:23.001Z,77.60
2023-05-23T11:47:49.971Z,76.90
2023-05-23T11:50:17.829Z,77.00
2023-05-23T11:52:46.742Z,77.90
2023-05-23T11:55:13.666Z,79.20
2023-05-23T11:57:41.190Z,77.70
2023-05-23T12:00:08.988Z,79.00
2023-05-23T12:02:40.976Z,77.20
2023-05-23T12:05:15.706Z,76.20
2023-05-23T12:07:47.543Z,76.30
2023-05-23T12:10:19.941Z,77.40
2023-05-23T12:12:46.805Z,78.50
2023-05-23T12:15:15.982Z,79.40
2023-05-23T12:17:46.634Z,80.40
2023-05-23T12:20:14.247Z,82.00
2023-05-23T12:22:42.512Z,80.80
2023-05-23T12:25:12.476Z,79.10
2023-05-23T12:27:41.690Z,79.50
2023-05-23T12:30:10.546Z,80.10
2023-05-23T12:32:45.551Z,81.00
2023-05-23T12:35:14.774Z,80.40
2023-05-23T12:37:44.315Z,80.10
2023-05-23T12:40:18.344Z,80.30
2023-05-23T12:42:58.419Z,78.90
2023-05-23T12:45:36.541Z,77.30
2023-05-23T12:48:04.069Z,80.10
2023-05-23T12:50:31.447Z,79.90
2023-05-23T12:52:58.976Z,81.70
2023-05-23T12:55:25.849Z,83.40
2023-05-23T12:57:52.897Z,83.00
2023-05-23T13:00:21.626Z,84.60
2023-05-23T13:02:49.281Z,84.10
2023-05-23T13:05:16.196Z,82.90
2023-05-23T13:07:44.146Z,81.70
2023-05-23T13:10:11.351Z,82.60
2023-05-23T13:12:38.551Z,83.00
2023-05-23T13:15:06.580Z,82.40
2023-05-23T13:17:33.636Z,81.70
2023-05-23T13:20:01.248Z,82.50
2023-05-23T13:22:29.364Z,81.80
2023-05-23T13:24:56.493Z,81.70
2023-05-23T13:27:23.344Z,80.60
2023-05-23T13:29:50.279Z,81.90
2023-05-23T13:32:17.126Z,81.70
2023-05-23T13:34:44.044Z,80.30
2023-05-23T13:37:10.813Z,82.20
2023-05-23T13:39:37.721Z,80.80
2023-05-23T13:42:04.725Z,80.90
2023-05-23T13:44:31.592Z,81.80
2023-05-23T13:47:12.518Z,80.40
2023-05-23T13:49:40.754Z,79.60
2023-05-23T13:52:07.638Z,81.10
2023-05-23T13:54:34.717Z,80.80
2023-05-23T13:57:01.856Z,79.00
2023-05-23T13:59:29.259Z,79.10
2023-05-23T14:01:56.357Z,79.80
2023-05-23T14:04:23.460Z,80.60
2023-05-23T14:06:50.894Z,82.50
2023-05-23T14:09:18.151Z,80.70
2023-05-23T14:11:45.301Z,81.10
2023-05-23T14:14:12.550Z,83.00
2023-05-23T14:16:39.492Z,86.70
2023-05-23T14:19:06.425Z,89.40
2023-05-23T14:21:34.000Z,90.30
2023-05-23T14:24:00.827Z,91.60
2023-05-23T14:26:27.718Z,91.90
2023-05-23T14:28:54.586Z,92.40
2023-05-23T14:31:21.847Z,92.10
2023-05-23T14:33:49.993Z,92.90
2023-05-23T14:36:17.046Z,93.50
2023-05-23T14:38:46.723Z,93.80
2023-05-23T14:41:16.654Z,93.80
2023-05-23T14:43:43.610Z,94.40
2023-05-23T14:46:10.512Z,94.70
2023-05-23T14:48:37.607Z,95.40
2023-05-23T14:51:04.626Z,95.10
2023-05-23T14:53:32.737Z,94.90
2023-05-23T14:56:00.508Z,95.60
2023-05-23T14:58:27.292Z,95.60
2023-05-23T15:00:54.070Z,96.00
2023-05-23T15:03:21.161Z,96.80
2023-05-23T15:05:48.785Z,97.50
2023-05-23T15:08:18.215Z,98.00
2023-05-23T15:10:45.623Z,98.20
2023-05-23T15:13:12.543Z,98.90
2023-05-23T15:15:40.899Z,99.70
2023-05-23T15:18:10.043Z,99.70
2023-05-23T15:20:37.187Z,99.80
2023-05-23T15:23:04.797Z,99.90
2023-05-23T15:25:47.952Z,98.60
2023-05-23T15:28:16.192Z,99.50
2023-05-23T15:30:44.046Z,99.90
2023-05-23T15:33:12.855Z,96.10
2023-05-23T15:35:39.974Z,96.10
2023-05-23T15:38:07.204Z,96.00
2023-05-23T15:40:33.983Z,94.90
2023-05-23T15:43:00.904Z,94.20
2023-05-23T15:45:27.690Z,93.60
2023-05-23T15:47:54.516Z,93.70
2023-05-23T15:50:21.489Z,94.10
2023-05-23T15:52:48.291Z,92.50
2023-05-23T15:55:15.073Z,92.10
2023-05-23T15:57:41.846Z,92.60
2023-05-23T16:00:09.635Z,92.40
2023-05-23T16:02:36.436Z,91.80
2023-05-23T16:05:03.360Z,91.30
2023-05-23T16:07:30.396Z,91.20
2023-05-23T16:09:57.244Z,91.30
2023-05-23T16:12:24.100Z,92.00
2023-05-23T16:14:50.966Z,90.80
2023-05-23T16:17:17.856Z,91.10
2023-05-23T16:19:44.815Z,91.10
2023-05-23T16:22:11.604Z,90.80
2023-05-23T16:24:38.457Z,90.80
2023-05-23T16:27:05.667Z,89.20
2023-05-23T16:29:32.561Z,87.70
2023-05-23T16:31:59.497Z,87.40
2023-05-23T16:34:26.617Z,88.10
2023-05-23T16:36:53.407Z,87.10
2023-05-23T16:39:20.255Z,87.40
2023-05-23T16:41:47.060Z,88.60
2023-05-23T16:44:13.943Z,88.60
2023-05-23T16:46:40.957Z,88.40
2023-05-23T16:49:07.838Z,89.00
2023-05-23T16:51:34.630Z,88.10
2023-05-23T16:54:01.645Z,88.30
2023-05-23T16:56:28.425Z,88.70
2023-05-23T16:58:55.152Z,89.10
2023-05-23T17:01:21.982Z,89.20
2023-05-23T17:03:49.132Z,89.50
2023-05-23T17:06:16.000Z,89.00
2023-05-23T17:08:42.766Z,89.50
2023-05-23T17:11:09.527Z,89.60
2023-05-23T17:13:36.306Z,89.90
2023-05-23T17:16:03.143Z,90.20
2023-05-23T17:18:30.163Z,90.50
2023-05-23T17:20:56.978Z,90.50
2023-05-23T17:23:24.038Z,90.00
2023-05-23T17:25:50.885Z,89.70
2023-05-23T17:28:17.776Z,89.90
2023-05-23T17:30:44.527Z,89.80
2023-05-23T17:33:11.485Z,90.20
2023-05-23T17:35:38.554Z,90.10
2023-05-23T17:38:05.576Z,90.10
2023-05-23T17:40:32.392Z,90.10
2023-05-23T17:42:59.166Z,90.50
2023-05-23T17:45:25.933Z,90.70
2023-05-23T17:47:52.700Z,90.90
2023-05-23T17:50:19.514Z,90.70
2023-05-23T17:52:46.336Z,90.60
2023-05-23T17:55:13.198Z,90.80
2023-05-23T17:57:40.000Z,90.70
2023-05-23T18:00:08.809Z,91.00
2023-05-23T18:02:35.590Z,91.40
2023-05-23T18:05:02.435Z,91.70
2023-05-23T18:07:29.299Z,92.00
2023-05-23T18:09:59.639Z,91.70
2023-05-23T18:12:26.943Z,91.70
2023-05-23T18:14:53.743Z,91.60
2023-05-23T18:17:20.972Z,92.00
2023-05-23T18:19:47.990Z,91.60
2023-05-23T18:22:16.576Z,91.70
2023-05-23T18:24:43.644Z,91.60
2023-05-23T18:27:10.393Z,91.10
2023-05-23T18:29:37.262Z,91.80
2023-05-23T18:32:04.121Z,91.30
2023-05-23T18:34:30.854Z,91.70
2023-05-23T18:36:57.693Z,91.20
2023-05-23T18:39:24.521Z,91.10
2023-05-23T18:41:51.386Z,91.40
2023-05-23T18:44:20.642Z,91.30
2023-05-23T18:46:48.014Z,91.40
2023-05-23T18:49:14.995Z,91.10
2023-05-23T18:51:42.670Z,91.30
2023-05-23T18:54:09.429Z,91.20
2023-05-23T18:56:36.366Z,91.40
2023-05-23T18:59:03.215Z,91.40
2023-05-23T19:01:30.207Z,91.60
2023-05-23T19:03:57.823Z,91.60
2023-05-23T19:06:25.200Z,91.80
2023-05-23T19:08:51.961Z,92.00
2023-05-23T19:11:18.688Z,92.20
2023-05-23T19:13:45.578Z,92.30
2023-05-23T19:16:12.460Z,92.30
2023-05-23T19:18:39.280Z,92.60
2023-05-23T19:21:06.063Z,92.80
2023-05-23T19:23:33.189Z,93.00
2023-05-23T19:25:59.952Z,93.40
2023-05-23T19:28:26.741Z,93.40
2023-05-23T19:30:53.465Z,93.50
2023-05-23T19:33:21.693Z,93.50
2023-05-23T19:35:48.496Z,93.70
2023-05-23T19:38:15.292Z,94.10
2023-05-23T19:40:42.212Z,94.10
2023-05-23T19:43:09.184Z,94.30
2023-05-23T19:45:37.217Z,94.40
2023-05-23T19:48:04.266Z,94.50
2023-05-23T19:50:31.276Z,94.90
2023-05-23T19:52:58.965Z,94.90
2023-05-23T19:55:25.844Z,95.10
2023-05-23T19:57:52.880Z,95.30
2023-05-23T20:00:19.802Z,95.50
2023-05-23T20:02:47.388Z,95.80
2023-05-23T20:05:14.227Z,95.90
2023-05-23T20:07:41.130Z,96.00
2023-05-23T20:10:08.746Z,96.10
2023-05-23T20:12:36.162Z,96.40
2023-05-23T20:15:03.133Z,96.60
2023-05-23T20:17:30.745Z,96.70
2023-05-23T20:19:57.884Z,97.00
2023-05-23T20:22:24.615Z,97.00
2023-05-23T20:24:51.500Z,97.30
2023-05-23T20:27:18.294Z,97.40
2023-05-23T20:29:45.096Z,97.50
2023-05-23T20:32:12.083Z,97.90
2023-05-23T20:34:38.860Z,97.80
2023-05-23T20:37:05.639Z,98.10
2023-05-23T20:39:32.385Z,98.40
2023-05-23T20:41:59.719Z,98.40
2023-05-23T20:44:26.813Z,98.50
2023-05-23T20:46:53.705Z,98.80
2023-05-23T20:49:20.558Z,98.90
2023-05-23T20:51:47.980Z,99.00
2023-05-23T20:54:15.955Z,99.20
2023-05-23T20:56:42.705Z,99.30
2023-05-23T20:59:12.219Z,99.50
2023-05-23T21:01:40.272Z,99.70
2023-05-23T21:04:07.153Z,99.80
2023-05-23T21:06:34.274Z,99.90
2023-05-23T21:09:00.998Z,99.90
2023-05-23T21:11:27.783Z,99.90
2023-05-23T21:13:54.574Z,99.90
2023-05-23T21:16:21.364Z,99.90
2023-05-23T21:18:48.206Z,99.90
2023-05-23T21:21:15.299Z,99.90
2023-05-23T21:23:42.080Z,99.90
2023-05-23T21:26:08.855Z,99.90
2023-05-23T21:28:35.565Z,99.90
2023-05-23T21:31:03.427Z,99.90
2023-05-23T21:33:30.311Z,99.90
2023-05-23T21:35:59.225Z,99.90
2023-05-23T21:38:27.664Z,99.90
2023-05-23T21:40:54.443Z,99.90
2023-05-23T21:43:21.236Z,99.90
2023-05-23T21:45:48.044Z,99.90
2023-05-23T21:48:14.795Z,99.90
2023-05-23T21:50:41.759Z,99.90
2023-05-23T21:53:08.642Z,99.90
2023-05-23T21:55:35.478Z,99.90
2023-05-23T21:58:02.230Z,99.90
2023-05-23T22:00:29.582Z,99.90
2023-05-23T22:02:56.730Z,99.90
2023-05-23T22:05:23.542Z,99.90
2023-05-23T22:07:50.427Z,99.90
2023-05-23T22:10:17.253Z,99.90
2023-05-23T22:12:44.052Z,99.90
2023-05-23T22:15:11.171Z,99.90
2023-05-23T22:17:38.085Z,99.90
2023-05-23T22:20:05.597Z,99.90
2023-05-23T22:22:32.340Z,99.90
2023-05-23T22:24:59.127Z,99.90
2023-05-23T22:27:26.069Z,99.90
2023-05-23T22:29:52.945Z,99.90
2023-05-23T22:32:19.731Z,99.90
2023-05-23T22:34:46.512Z,99.90
2023-05-23T22:37:16.336Z,99.90
2023-05-23T22:39:48.346Z,99.90
2023-05-23T22:42:17.722Z,99.90
2023-05-23T22:44:47.310Z,99.90
2023-05-23T22:47:19.165Z,99.90
2023-05-23T22:49:50.007Z,99.90
2023-05-23T22:52:18.696Z,99.90
2023-05-23T22:54:48.129Z,99.90
2023-05-23T22:57:17.910Z,99.90
2023-05-23T22:59:47.678Z,99.90
2023-05-23T23:02:17.129Z,99.90
2023-05-23T23:04:48.322Z,99.90
2023-05-23T23:07:17.990Z,99.90
2023-05-23T23:09:47.057Z,99.90
2023-05-23T23:12:16.321Z,99.90
2023-05-23T23:14:57.504Z,99.90
2023-05-23T23:17:29.991Z,99.90
2023-05-23T23:20:01.207Z,99.90
2023-05-23T23:22:31.396Z,99.90
2023-05-23T23:25:03.523Z,99.90
2023-05-23T23:27:33.558Z,99.90
2023-05-23T23:30:05.933Z,99.90
2023-05-23T23:32:37.448Z,99.90
2023-05-23T23:35:06.960Z,99.90
2023-05-23T23:37:36.121Z,99.90
2023-05-23T23:40:05.763Z,99.90
2023-05-23T23:42:35.115Z,99.90
2023-05-23T23:45:06.667Z,99.90
2023-05-23T23:47:37.185Z,99.90
2023-05-23T23:50:09.363Z,99.90
2023-05-23T23:52:39.625Z,99.90
2023-05-23T23:55:10.360Z,99.90
2023-05-23T23:57:40.901Z,99.90
